Time;durP1;ratioP1;P1;durP2;ratioP2;P2;SDS_P1;SDS_P2;PMS_P1;PMS_P2;Temp;Humidity;BMP_temperature;BMP_pressure;BME280_temperature;BME280_humidity;BME280_pressure;Samples;Min_cycle;Max_cycle;Signal;HPM_P1;HPM_P2
2021/03/03 00:00:56;;;;;;;31.85;18.50;;;6.20;99.90;;;;;;5025164;28;20485;-56
2021/03/03 00:03:22;;;;;;;30.08;17.85;;;6.10;99.90;;;;;;5028740;28;20033;-60
2021/03/03 00:05:47;;;;;;;31.75;17.35;;;6.00;99.90;;;;;;5010539;28;20045;-59
2021/03/03 00:08:13;;;;;;;31.20;18.35;;;5.90;99.90;;;;;;5010917;28;20400;-56
2021/03/03 00:10:38;;;;;;;31.65;18.15;;;5.90;99.90;;;;;;5010201;28;20025;-57
2021/03/03 00:13:04;;;;;;;32.72;19.67;;;5.80;99.90;;;;;;5010536;28;20669;-55
2021/03/03 00:15:30;;;;;;;32.10;18.17;;;5.80;99.90;;;;;;5010144;28;20038;-55
2021/03/03 00:17:56;;;;;;;30.40;18.05;;;5.80;99.90;;;;;;5028129;28;20033;-58
2021/03/03 00:20:21;;;;;;;32.55;17.90;;;5.80;99.90;;;;;;5010360;28;20441;-60
2021/03/03 00:22:47;;;;;;;31.70;18.55;;;5.70;99.90;;;;;;5010103;28;20059;-60
2021/03/03 00:25:13;;;;;;;33.08;17.90;;;5.70;99.90;;;;;;5009357;28;20025;-59
2021/03/03 00:27:39;;;;;;;30.08;17.75;;;5.70;99.90;;;;;;5028173;28;20075;-53
2021/03/03 00:30:05;;;;;;;29.83;17.67;;;5.70;99.90;;;;;;5027567;28;20022;-59
2021/03/03 00:32:31;;;;;;;31.10;18.17;;;5.70;99.90;;;;;;5027617;28;20025;-57
2021/03/03 00:34:57;;;;;;;32.42;19.35;;;5.60;99.90;;;;;;5010198;28;20055;-59
2021/03/03 00:37:22;;;;;;;31.95;18.17;;;5.60;99.90;;;;;;5028343;28;20025;-58
2021/03/03 00:39:48;;;;;;;34.17;18.52;;;5.60;99.90;;;;;;5027686;28;20028;-60
2021/03/03 00:42:14;;;;;;;31.38;18.77;;;5.50;99.90;;;;;;5010450;28;20029;-60
2021/03/03 00:44:40;;;;;;;30.92;19.77;;;5.50;99.90;;;;;;5027111;28;20065;-54
2021/03/03 00:47:05;;;;;;;32.17;18.15;;;5.40;99.90;;;;;;5010142;28;20026;-61
2021/03/03 00:49:31;;;;;;;29.88;17.55;;;5.40;99.90;;;;;;5026916;28;20037;-59
2021/03/03 00:51:57;;;;;;;28.58;17.33;;;5.40;99.90;;;;;;4993963;28;20878;-61
2021/03/03 00:54:23;;;;;;;34.08;19.38;;;5.40;99.90;;;;;;5024756;28;20103;-61
2021/03/03 00:56:49;;;;;;;30.35;16.08;;;5.40;99.90;;;;;;5006481;28;20021;-60
2021/03/03 00:59:14;;;;;;;29.85;17.27;;;5.40;99.90;;;;;;5027339;28;20075;-60
2021/03/03 01:01:41;;;;;;;31.17;17.83;;;5.40;99.90;;;;;;4993915;28;20029;-60
2021/03/03 01:04:08;;;;;;;30.50;16.02;;;5.30;99.90;;;;;;5028229;28;20067;-57
2021/03/03 01:06:35;;;;;;;29.17;17.17;;;5.30;99.90;;;;;;5027946;28;20385;-60
2021/03/03 01:09:01;;;;;;;33.03;17.70;;;5.20;99.90;;;;;;5012497;28;20060;-58
2021/03/03 01:11:26;;;;;;;31.10;17.15;;;5.20;99.90;;;;;;4977441;28;20049;-58
2021/03/03 01:13:52;;;;;;;28.85;16.00;;;5.20;99.90;;;;;;5029232;28;20029;-61
2021/03/03 01:16:18;;;;;;;34.70;17.20;;;5.20;99.90;;;;;;5031342;28;20530;-59
2021/03/03 01:18:44;;;;;;;29.95;18.05;;;5.20;99.90;;;;;;5032537;28;20029;-60
2021/03/03 01:21:10;;;;;;;29.23;18.15;;;5.10;99.90;;;;;;5036770;28;20029;-60
2021/03/03 01:23:36;;;;;;;30.63;17.15;;;5.10;99.90;;;;;;5016448;28;20496;-61
2021/03/03 01:26:02;;;;;;;28.75;17.02;;;5.10;99.90;;;;;;5015483;28;20080;-56
2021/03/03 01:28:27;;;;;;;29.55;16.73;;;5.10;99.90;;;;;;5033355;28;20071;-52
2021/03/03 01:30:54;;;;;;;28.05;16.55;;;5.00;99.90;;;;;;5033583;28;20104;-61
2021/03/03 01:33:28;;;;;;;30.50;16.80;;;5.00;99.90;;;;;;5017305;28;20552;-60
2021/03/03 01:35:54;;;;;;;29.13;17.13;;;4.90;99.90;;;;;;5035295;28;20033;-55
2021/03/03 01:38:20;;;;;;;31.15;17.08;;;4.90;99.90;;;;;;5016993;28;20025;-60
2021/03/03 01:40:46;;;;;;;29.80;17.02;;;5.00;99.90;;;;;;5017203;28;20029;-59
2021/03/03 01:43:12;;;;;;;30.25;16.85;;;5.00;99.90;;;;;;5016711;28;20075;-61
2021/03/03 01:45:39;;;;;;;29.92;16.85;;;4.90;99.90;;;;;;5035127;28;20112;-62
2021/03/03 01:48:06;;;;;;;32.35;16.63;;;4.90;99.90;;;;;;5034871;28;20021;-58
2021/03/03 01:50:31;;;;;;;28.13;16.13;;;4.90;99.90;;;;;;4991611;28;20401;-61
2021/03/03 01:55:33;;;;;;;30.15;17.25;;;4.90;99.90;;;;;;5075171;22;20088;-60
2021/03/03 01:58:00;;;;;;;29.20;17.50;;;4.90;99.90;;;;;;5036299;28;20048;-58
2021/03/03 02:00:26;;;;;;;30.85;16.95;;;4.90;99.90;;;;;;5036157;28;20047;-54
2021/03/03 02:02:52;;;;;;;31.52;17.77;;;4.80;99.90;;;;;;5036775;28;20092;-57
2021/03/03 02:05:18;;;;;;;29.50;16.00;;;4.80;99.90;;;;;;5054613;28;20036;-56
2021/03/03 02:07:55;;;;;;;32.05;17.02;;;4.70;99.90;;;;;;5036518;28;20057;-58
2021/03/03 02:10:36;;;;;;;28.63;16.42;;;4.70;99.90;;;;;;5016851;28;20052;-53
2021/03/03 02:13:08;;;;;;;29.88;16.08;;;4.70;99.90;;;;;;5034659;28;20021;-56
2021/03/03 02:15:37;;;;;;;29.77;17.92;;;4.70;99.90;;;;;;5034679;28;20017;-58
2021/03/03 02:18:04;;;;;;;30.38;16.10;;;4.70;99.90;;;;;;5017353;28;20037;-57
2021/03/03 02:20:32;;;;;;;27.45;15.48;;;4.70;99.90;;;;;;5045185;28;20036;-56
2021/03/03 02:23:24;;;;;;;29.80;16.08;;;4.70;99.90;;;;;;5036469;28;20029;-59
2021/03/03 02:25:50;;;;;;;28.15;15.48;;;4.60;99.90;;;;;;5054338;28;20036;-54
2021/03/03 02:28:16;;;;;;;30.23;15.68;;;4.60;99.90;;;;;;5041849;28;20118;-59
2021/03/03 02:30:44;;;;;;;31.08;17.05;;;4.60;99.90;;;;;;5037074;28;20025;-56
2021/03/03 02:33:13;;;;;;;26.93;15.83;;;4.60;99.90;;;;;;5042807;28;20021;-57
2021/03/03 02:35:39;;;;;;;;;;;4.50;99.90;;;;;;5015577;28;20108;-58
2021/03/03 02:38:06;;;;;;;29.42;16.33;;;4.50;99.90;;;;;;5031067;28;19905;-56
2021/03/03 02:40:33;;;;;;;28.98;15.63;;;4.50;99.90;;;;;;5035802;28;20484;-64
2021/03/03 02:43:00;;;;;;;32.05;17.15;;;4.50;99.90;;;;;;5037854;28;20065;-59
2021/03/03 02:45:26;;;;;;;107.60;64.22;;;4.50;99.90;;;;;;5016265;28;20029;-57
2021/03/03 02:47:53;;;;;;;54.92;37.25;;;4.50;99.90;;;;;;5038298;28;20060;-57
2021/03/03 02:50:19;;;;;;;34.08;18.42;;;4.60;99.90;;;;;;5035108;28;20025;-57
2021/03/03 02:52:57;;;;;;;33.20;18.70;;;4.60;99.90;;;;;;5038432;28;20423;-58
2021/03/03 02:55:25;;;;;;;30.60;15.80;;;4.60;99.90;;;;;;5036024;28;20058;-56
2021/03/03 02:57:56;;;;;;;28.80;15.55;;;4.50;99.90;;;;;;5050260;28;20417;-60
2021/03/03 03:00:31;;;;;;;27.73;15.65;;;4.50;99.90;;;;;;5053490;28;20082;-61
2021/03/03 03:03:11;;;;;;;31.13;16.05;;;4.50;99.90;;;;;;5053964;28;20452;-59
2021/03/03 03:05:39;;;;;;;31.48;16.20;;;4.40;99.90;;;;;;4996338;28;20057;-59
2021/03/03 03:08:08;;;;;;;29.55;16.10;;;4.40;99.90;;;;;;4995931;28;20026;-57
2021/03/03 03:10:35;;;;;;;31.42;16.75;;;4.40;99.90;;;;;;4995596;28;20125;-58
2021/03/03 03:13:02;;;;;;;31.17;15.95;;;4.30;99.90;;;;;;5013837;28;20540;-59
2021/03/03 03:15:31;;;;;;;28.08;16.60;;;4.30;99.90;;;;;;5013854;28;20042;-57
2021/03/03 03:18:07;;;;;;;29.20;15.63;;;4.30;99.90;;;;;;5013379;28;20022;-55
2021/03/03 03:20:34;;;;;;;31.27;16.30;;;4.20;99.90;;;;;;5015007;28;20021;-61
2021/03/03 03:23:03;;;;;;;30.40;16.65;;;4.30;99.90;;;;;;5039053;28;20025;-57
2021/03/03 03:25:29;;;;;;;30.20;16.65;;;4.20;99.90;;;;;;5033351;28;20373;-57
2021/03/03 03:27:58;;;;;;;28.42;15.52;;;4.30;99.90;;;;;;5039915;28;20028;-57
2021/03/03 03:30:25;;;;;;;30.23;16.60;;;4.20;99.90;;;;;;5052439;28;20052;-56
2021/03/03 03:32:51;;;;;;;29.83;15.52;;;4.10;99.90;;;;;;5053034;28;20048;-58
2021/03/03 03:35:18;;;;;;;29.35;15.50;;;4.10;99.90;;;;;;5052995;28;20083;-58
2021/03/03 03:37:43;;;;;;;28.45;14.75;;;4.10;99.90;;;;;;5052047;28;20024;-54
2021/03/03 03:40:10;;;;;;;30.30;15.90;;;4.10;99.90;;;;;;5034470;28;20025;-58
2021/03/03 03:42:36;;;;;;;29.77;16.05;;;4.10;99.90;;;;;;5052646;28;20024;-56
2021/03/03 03:45:04;;;;;;;31.00;16.00;;;4.00;99.90;;;;;;5019584;28;20033;-58
2021/03/03 03:47:31;;;;;;;29.52;16.25;;;4.00;99.90;;;;;;5032974;28;20029;-59
2021/03/03 03:50:01;;;;;;;29.92;15.68;;;4.00;99.90;;;;;;5032098;28;20044;-57
2021/03/03 03:52:26;;;;;;;29.42;15.15;;;4.00;99.90;;;;;;5044315;28;20025;-56
2021/03/03 03:54:53;;;;;;;26.30;14.82;;;3.90;99.90;;;;;;5047217;28;20090;-59
2021/03/03 03:57:19;;;;;;;32.28;16.30;;;3.90;99.90;;;;;;5032667;28;20485;-54
2021/03/03 03:59:45;;;;;;;32.75;17.73;;;3.90;99.90;;;;;;5048908;28;20052;-58
2021/03/03 04:02:11;;;;;;;29.30;15.23;;;3.90;99.90;;;;;;5052286;28;20468;-57
2021/03/03 04:04:37;;;;;;;26.70;14.23;;;4.00;99.90;;;;;;5021812;28;20465;-56
2021/03/03 04:07:04;;;;;;;27.27;15.45;;;3.90;99.90;;;;;;5048973;28;20021;-56
2021/03/03 04:09:30;;;;;;;26.70;15.73;;;3.90;99.90;;;;;;5051720;28;20032;-55
2021/03/03 04:11:57;;;;;;;28.38;14.50;;;3.90;99.90;;;;;;5052320;28;20025;-55
2021/03/03 04:14:23;;;;;;;28.90;15.50;;;3.90;99.90;;;;;;5017126;28;20032;-58
2021/03/03 04:16:49;;;;;;;27.08;15.23;;;3.90;99.90;;;;;;5032270;28;20483;-59
2021/03/03 04:19:15;;;;;;;25.77;14.98;;;3.90;99.90;;;;;;5031616;28;20022;-58
2021/03/03 04:21:41;;;;;;;28.85;14.60;;;3.90;99.90;;;;;;5036020;28;20447;-63
2021/03/03 04:24:07;;;;;;;27.27;14.63;;;3.90;99.90;;;;;;5039089;28;20021;-55
2021/03/03 04:26:33;;;;;;;26.55;14.23;;;3.90;99.90;;;;;;5044480;28;20032;-57
2021/03/03 04:28:59;;;;;;;28.63;14.82;;;3.90;99.90;;;;;;5049945;28;20063;-58
2021/03/03 04:31:24;;;;;;;24.80;14.85;;;3.80;99.90;;;;;;5014480;28;20075;-57
2021/03/03 04:33:50;;;;;;;26.88;15.55;;;3.80;99.90;;;;;;5031910;28;20490;-49
2021/03/03 04:36:16;;;;;;;27.25;14.30;;;3.80;99.90;;;;;;5031889;28;20033;-56
2021/03/03 04:38:42;;;;;;;28.52;14.88;;;3.80;99.90;;;;;;5030951;28;20119;-58
2021/03/03 04:41:08;;;;;;;27.95;14.40;;;3.80;99.90;;;;;;5022488;28;20029;-58
2021/03/03 04:43:34;;;;;;;27.75;14.02;;;3.80;99.90;;;;;;5050950;28;20075;-56
2021/03/03 04:46:00;;;;;;;28.33;15.35;;;3.70;99.90;;;;;;5043573;28;20639;-60
2021/03/03 04:48:26;;;;;;;30.55;14.95;;;3.70;99.90;;;;;;5030233;28;20045;-59
2021/03/03 04:50:51;;;;;;;34.85;15.38;;;3.70;99.90;;;;;;5038542;28;20068;-59
2021/03/03 04:53:18;;;;;;;31.30;14.80;;;3.70;99.90;;;;;;5044093;28;20032;-53
2021/03/03 04:55:45;;;;;;;25.60;14.48;;;3.70;99.90;;;;;;5031657;28;20025;-56
2021/03/03 04:58:11;;;;;;;28.27;14.90;;;3.70;99.90;;;;;;5040697;28;20027;-56
2021/03/03 05:00:37;;;;;;;28.50;16.25;;;3.70;99.90;;;;;;5051147;28;20104;-58
2021/03/03 05:03:03;;;;;;;34.30;15.68;;;3.70;99.90;;;;;;5048571;28;20064;-55
2021/03/03 05:05:29;;;;;;;27.23;15.32;;;3.70;99.90;;;;;;5016714;28;20461;-58
2021/03/03 05:07:55;;;;;;;30.60;16.27;;;3.70;99.90;;;;;;5038300;28;20044;-56
2021/03/03 05:10:21;;;;;;;26.83;16.23;;;3.60;99.90;;;;;;5016714;28;20037;-56
2021/03/03 05:12:47;;;;;;;30.55;15.32;;;3.70;99.90;;;;;;5033500;28;20040;-55
2021/03/03 05:15:13;;;;;;;31.48;14.63;;;3.60;99.90;;;;;;5034374;28;20036;-57
2021/03/03 05:17:39;;;;;;;35.88;17.70;;;3.60;99.90;;;;;;5031465;28;20381;-56
2021/03/03 05:20:08;;;;;;;30.83;15.73;;;3.60;99.90;;;;;;5031147;28;20088;-57
2021/03/03 05:22:34;;;;;;;26.83;15.18;;;3.60;99.90;;;;;;5031278;28;20420;-57
2021/03/03 05:25:00;;;;;;;27.50;15.40;;;3.60;99.90;;;;;;5033676;28;20105;-57
2021/03/03 05:27:25;;;;;;;29.15;16.40;;;3.50;99.90;;;;;;5032854;28;20551;-53
2021/03/03 05:29:51;;;;;;;31.27;15.90;;;3.60;99.90;;;;;;5022987;28;20123;-54
2021/03/03 05:32:16;;;;;;;30.55;16.15;;;3.60;99.90;;;;;;5013945;28;20041;-56
2021/03/03 05:34:42;;;;;;;28.30;15.00;;;3.60;99.90;;;;;;5045684;28;20028;-58
2021/03/03 05:37:08;;;;;;;29.20;15.98;;;3.60;99.90;;;;;;5034656;28;20108;-57
2021/03/03 05:39:33;;;;;;;30.63;15.18;;;3.60;99.90;;;;;;5034710;28;20161;-58
2021/03/03 05:42:03;;;;;;;27.65;16.35;;;3.60;99.90;;;;;;5052623;28;20033;-56
2021/03/03 05:44:29;;;;;;;30.33;15.10;;;3.70;99.90;;;;;;5034844;28;20021;-57
2021/03/03 05:46:58;;;;;;;27.80;13.90;;;3.60;99.90;;;;;;5046918;28;20025;-58
2021/03/03 05:49:26;;;;;;;32.75;15.68;;;3.60;99.90;;;;;;5031337;28;20029;-58
2021/03/03 05:51:57;;;;;;;29.38;15.45;;;3.60;99.90;;;;;;5013709;28;20080;-54
2021/03/03 05:54:23;;;;;;;33.78;17.30;;;3.60;99.90;;;;;;5039053;28;20512;-56
2021/03/03 05:56:49;;;;;;;29.50;15.60;;;3.70;99.90;;;;;;5037104;28;20500;-56
2021/03/03 05:59:16;;;;;;;31.05;15.55;;;3.60;99.90;;;;;;5048865;28;20082;-59
2021/03/03 06:01:45;;;;;;;35.50;16.92;;;3.70;99.90;;;;;;5017088;28;20036;-56
2021/03/03 06:04:11;;;;;;;33.25;15.60;;;3.70;99.90;;;;;;5036925;28;20041;-53
2021/03/03 06:06:44;;;;;;;31.73;15.43;;;3.80;99.90;;;;;;5034570;28;20021;-55
2021/03/03 06:09:10;;;;;;;28.77;15.48;;;3.70;99.90;;;;;;5034294;28;20399;-55
2021/03/03 06:11:36;;;;;;;32.15;15.63;;;3.80;99.90;;;;;;5047740;28;20104;-54
2021/03/03 06:14:02;;;;;;;35.20;15.10;;;3.80;99.90;;;;;;5031401;28;20374;-58
2021/03/03 06:16:29;;;;;;;29.13;14.65;;;3.80;99.90;;;;;;5034630;28;20101;-56
2021/03/03 06:18:55;;;;;;;27.90;13.93;;;3.90;99.90;;;;;;5034102;28;20028;-54
2021/03/03 06:21:39;;;;;;;29.95;15.50;;;3.90;99.90;;;;;;5016536;28;20116;-58
2021/03/03 06:24:06;;;;;;;31.20;15.68;;;3.90;99.90;;;;;;5041276;28;20104;-58
2021/03/03 06:26:33;;;;;;;32.38;15.35;;;4.00;99.90;;;;;;5022050;28;20037;-56
2021/03/03 06:28:59;;;;;;;31.52;16.50;;;4.10;99.90;;;;;;5028952;28;20029;-58
2021/03/03 06:31:33;;;;;;;31.67;15.10;;;4.10;99.90;;;;;;5054165;28;20063;-55
2021/03/03 06:34:12;;;;;;;28.52;15.45;;;4.20;99.90;;;;;;5044718;28;20106;-58
2021/03/03 06:36:40;;;;;;;32.53;16.63;;;4.20;99.90;;;;;;5053740;28;20074;-58
2021/03/03 06:39:22;;;;;;;28.45;16.38;;;4.20;99.90;;;;;;5053061;28;20586;-57
2021/03/03 06:41:58;;;;;;;32.13;16.25;;;4.30;99.90;;;;;;5035974;28;20504;-58
2021/03/03 06:44:43;;;;;;;35.95;16.77;;;4.40;99.90;;;;;;5035833;28;20534;-56
2021/03/03 06:47:09;;;;;;;33.53;16.40;;;4.40;99.90;;;;;;5052289;28;20028;-58
2021/03/03 06:49:35;;;;;;;29.45;15.60;;;4.50;99.90;;;;;;5046323;28;20021;-55
2021/03/03 06:52:00;;;;;;;31.63;15.70;;;4.60;99.90;;;;;;5045268;28;20065;-59
2021/03/03 06:54:27;;;;;;;34.00;15.80;;;4.70;99.90;;;;;;5019815;28;20021;-59
2021/03/03 06:56:55;;;;;;;33.40;17.00;;;4.70;99.90;;;;;;5040856;28;20480;-58
2021/03/03 06:59:34;;;;;;;32.47;16.23;;;4.80;99.90;;;;;;5027728;28;20088;-59
2021/03/03 07:02:11;;;;;;;36.72;15.70;;;4.90;99.90;;;;;;5034315;28;20449;-58
2021/03/03 07:04:37;;;;;;;30.00;15.52;;;5.00;99.90;;;;;;5025302;28;20059;-59
2021/03/03 07:07:17;;;;;;;37.13;15.80;;;5.00;99.90;;;;;;5036001;28;20017;-56
2021/03/03 07:09:50;;;;;;;28.63;15.43;;;5.10;99.90;;;;;;5026712;28;20037;-57
2021/03/03 07:12:18;;;;;;;32.13;16.48;;;5.20;99.90;;;;;;5015379;28;20029;-58
2021/03/03 07:14:54;;;;;;;29.55;15.73;;;5.30;99.90;;;;;;5016099;28;20025;-57
2021/03/03 07:17:24;;;;;;;28.58;16.42;;;5.40;99.90;;;;;;5034341;28;20116;-59
2021/03/03 07:19:58;;;;;;;31.13;15.98;;;5.40;99.90;;;;;;5033767;28;20018;-58
2021/03/03 07:22:32;;;;;;;34.00;16.55;;;5.40;99.90;;;;;;5033793;28;20029;-60
2021/03/03 07:25:04;;;;;;;37.97;17.63;;;5.60;99.90;;;;;;5016503;28;20025;-58
2021/03/03 07:27:31;;;;;;;36.70;16.17;;;5.60;99.90;;;;;;5017886;28;20037;-58
2021/03/03 07:30:03;;;;;;;43.83;18.50;;;5.70;99.90;;;;;;5014926;28;20052;-58
2021/03/03 07:32:29;;;;;;;45.75;21.33;;;5.70;99.90;;;;;;5027781;28;20029;-56
2021/03/03 07:34:57;;;;;;;35.45;17.17;;;5.80;99.90;;;;;;5053317;28;20033;-56
2021/03/03 07:37:24;;;;;;;41.13;18.20;;;5.80;99.90;;;;;;5035112;28;20021;-58
2021/03/03 07:40:00;;;;;;;43.35;17.58;;;5.80;99.90;;;;;;5015720;28;20022;-57
2021/03/03 07:42:30;;;;;;;36.25;17.88;;;5.90;99.90;;;;;;5037206;28;20021;-58
2021/03/03 07:45:03;;;;;;;42.15;17.63;;;5.90;99.90;;;;;;5035902;28;20025;-61
2021/03/03 07:47:31;;;;;;;36.83;17.10;;;5.90;99.90;;;;;;5053742;28;20021;-56
2021/03/03 07:50:03;;;;;;;38.70;17.05;;;5.90;99.90;;;;;;5032337;28;20498;-58
2021/03/03 07:52:30;;;;;;;42.28;17.60;;;6.00;99.90;;;;;;5032512;28;20103;-58
2021/03/03 07:54:58;;;;;;;43.90;19.65;;;5.90;99.90;;;;;;5064127;22;20049;-59
2021/03/03 07:57:26;;;;;;;37.92;17.52;;;6.10;99.90;;;;;;5032024;28;20113;-62
2021/03/03 07:59:52;;;;;;;42.78;18.17;;;6.10;99.90;;;;;;5031843;28;20098;-58
2021/03/03 08:02:19;;;;;;;40.83;18.55;;;6.00;99.90;;;;;;5014375;28;20032;-61
2021/03/03 08:04:45;;;;;;;40.28;19.65;;;6.10;99.90;;;;;;5014441;28;20021;-60
2021/03/03 08:07:16;;;;;;;32.10;18.15;;;6.30;99.90;;;;;;4990738;28;20021;-52
2021/03/03 08:10:14;;;;;;;34.22;18.15;;;6.40;99.90;;;;;;5012339;28;20370;-59
2021/03/03 08:13:03;;;;;;;39.63;19.55;;;6.60;99.90;;;;;;4994866;28;20022;-60
2021/03/03 08:15:32;;;;;;;;;;;6.70;99.90;;;;;;5023396;28;20056;-61
2021/03/03 08:18:13;;;;;;;35.53;16.02;;;6.90;99.90;;;;;;5014107;28;19909;-61
2021/03/03 08:20:48;;;;;;;33.95;16.73;;;7.10;99.90;;;;;;5022428;28;20029;-59
2021/03/03 08:23:52;;;;;;;33.45;17.58;;;7.20;99.90;;;;;;5028968;28;20344;-60
2021/03/03 08:26:18;;;;;;;31.33;17.60;;;7.50;99.90;;;;;;5001049;28;20045;-61
2021/03/03 08:29:17;;;;;;;38.08;20.00;;;7.70;99.90;;;;;;5002914;28;20029;-59
2021/03/03 08:31:43;;;;;;;36.22;20.10;;;7.70;99.90;;;;;;4988312;28;20069;-59
2021/03/03 08:34:10;;;;;;;36.58;20.38;;;7.90;99.90;;;;;;4992354;28;20030;-62
2021/03/03 08:36:36;;;;;;;38.08;21.88;;;8.00;99.90;;;;;;4978666;28;20069;-56
2021/03/03 08:39:02;;;;;;;44.80;21.90;;;8.10;99.90;;;;;;5011680;28;20105;-59
2021/03/03 08:41:38;;;;;;;33.90;22.05;;;8.10;99.90;;;;;;5031655;28;20450;-61
2021/03/03 08:44:10;;;;;;;37.63;24.15;;;8.20;99.90;;;;;;5031328;28;20056;-58
2021/03/03 08:46:42;;;;;;;36.05;23.42;;;8.40;99.90;;;;;;5026962;28;20398;-59
2021/03/03 08:49:08;;;;;;;33.28;20.00;;;8.50;99.90;;;;;;4991833;28;20034;-60
2021/03/03 08:51:37;;;;;;;35.20;20.15;;;8.70;99.90;;;;;;5031065;28;20017;-60
2021/03/03 08:54:04;;;;;;;39.08;19.38;;;8.90;99.90;;;;;;5005446;28;20033;-60
2021/03/03 08:56:52;;;;;;;34.28;19.17;;;9.00;99.90;;;;;;4994038;28;20078;-61
2021/03/03 08:59:36;;;;;;;34.53;19.85;;;9.20;99.90;;;;;;4997885;28;20071;-61
2021/03/03 09:02:07;;;;;;;32.83;20.08;;;9.30;99.90;;;;;;5011821;28;20075;-57
2021/03/03 09:04:52;;;;;;;31.25;18.77;;;9.30;99.90;;;;;;4993735;28;20444;-57
2021/03/03 09:07:21;;;;;;;32.72;18.73;;;9.30;99.90;;;;;;4993194;28;20026;-58
2021/03/03 09:09:55;;;;;;;28.88;17.38;;;9.30;99.90;;;;;;5019422;28;20390;-57
2021/03/03 09:12:23;;;;;;;30.33;17.80;;;9.30;99.90;;;;;;5004291;28;20444;-58
2021/03/03 09:14:51;;;;;;;31.90;17.75;;;9.30;99.90;;;;;;5021651;28;20029;-59
2021/03/03 09:17:28;;;;;;;30.73;16.25;;;9.30;99.90;;;;;;5011770;28;20505;-59
2021/03/03 09:20:00;;;;;;;28.85;17.60;;;9.30;99.90;;;;;;5025821;28;20453;-60
2021/03/03 09:22:55;;;;;;;32.75;18.35;;;9.40;99.90;;;;;;5031151;28;20025;-61
2021/03/03 09:25:22;;;;;;;32.05;17.40;;;9.50;99.90;;;;;;5014715;28;20045;-54
2021/03/03 09:27:54;;;;;;;31.33;17.00;;;9.70;99.90;;;;;;5011559;28;20575;-61
2021/03/03 09:30:21;;;;;;;34.97;18.77;;;9.80;99.90;;;;;;5029608;28;20105;-61
2021/03/03 09:32:48;;;;;;;27.25;17.60;;;10.00;99.90;;;;;;5029904;28;20053;-60
2021/03/03 09:35:14;;;;;;;32.10;19.05;;;10.20;99.90;;;;;;5012736;28;20033;-65
2021/03/03 09:37:45;;;;;;;30.98;18.40;;;10.30;99.90;;;;;;4997456;28;20045;-61
2021/03/03 09:40:16;;;;;;;30.63;18.73;;;10.30;99.90;;;;;;5031105;28;20152;-63
2021/03/03 09:42:47;;;;;;;30.55;18.33;;;10.50;99.90;;;;;;5032259;28;20481;-65
2021/03/03 09:45:24;;;;;;;31.45;17.85;;;10.50;99.90;;;;;;5020320;28;20037;-62
2021/03/03 09:47:51;;;;;;;39.65;20.25;;;10.50;99.90;;;;;;5013184;28;20117;-64
2021/03/03 09:50:21;;;;;;;35.80;19.77;;;10.50;99.90;;;;;;5007255;28;20420;-63
2021/03/03 09:52:50;;;;;;;30.10;18.05;;;10.50;99.90;;;;;;5004573;28;20515;-64
2021/03/03 09:55:20;;;;;;;30.27;19.27;;;10.60;99.90;;;;;;5010150;28;20026;-65
2021/03/03 09:57:54;;;;;;;33.50;20.45;;;10.80;99.90;;;;;;5016961;28;20370;-64
2021/03/03 10:00:22;;;;;;;32.17;20.13;;;10.90;99.90;;;;;;5016731;28;20053;-63
2021/03/03 10:02:50;;;;;;;35.63;20.45;;;11.10;99.90;;;;;;5034697;28;20656;-62
2021/03/03 10:05:20;;;;;;;32.22;19.40;;;11.30;99.90;;;;;;5028183;28;20049;-64
2021/03/03 10:08:03;;;;;;;37.78;19.10;;;11.30;99.90;;;;;;5014779;28;20034;-62
2021/03/03 10:10:33;;;;;;;33.97;21.17;;;11.40;99.90;;;;;;5014958;28;20040;-68
2021/03/03 10:12:59;;;;;;;33.35;20.23;;;11.60;99.90;;;;;;4996869;28;20026;-65
2021/03/03 10:15:36;;;;;;;30.63;20.35;;;11.60;99.90;;;;;;4996703;28;20026;-62
2021/03/03 10:18:08;;;;;;;32.08;20.52;;;11.70;99.90;;;;;;5014386;28;20022;-66
2021/03/03 10:20:44;;;;;;;33.78;21.92;;;11.80;99.90;;;;;;4995989;28;20037;-62
2021/03/03 10:23:21;;;;;;;35.00;21.75;;;11.90;99.90;;;;;;5014583;28;20515;-66
2021/03/03 10:25:49;;;;;;;36.10;21.58;;;12.00;99.90;;;;;;5004873;28;20493;-65
2021/03/03 10:28:21;;;;;;;34.42;21.45;;;12.00;99.90;;;;;;5027083;28;20033;-65
2021/03/03 10:30:57;;;;;;;36.45;23.02;;;12.10;99.90;;;;;;5019701;28;20084;-65
2021/03/03 10:33:27;;;;;;;39.42;21.95;;;12.20;99.90;;;;;;4996731;28;20144;-65
2021/03/03 10:35:54;;;;;;;32.90;22.27;;;12.30;99.90;;;;;;5019842;28;20025;-65
2021/03/03 10:38:22;;;;;;;34.55;22.42;;;12.40;99.90;;;;;;5033680;28;20060;-65
2021/03/03 10:40:50;;;;;;;42.45;23.80;;;12.60;99.90;;;;;;5033931;28;20014;-65
2021/03/03 10:43:20;;;;;;;33.92;22.13;;;12.60;99.90;;;;;;5033932;28;20026;-68
2021/03/03 10:45:48;;;;;;;33.42;22.55;;;12.80;99.90;;;;;;5032956;28;20128;-66
2021/03/03 10:48:31;;;;;;;38.55;22.17;;;12.90;99.90;;;;;;5033218;28;20057;-65
2021/03/03 10:51:00;;;;;;;34.95;21.77;;;13.00;99.90;;;;;;5015620;28;20030;-65
2021/03/03 10:53:44;;;;;;;38.28;25.65;;;12.90;99.90;;;;;;5033465;28;20025;-63
2021/03/03 10:56:29;;;;;;;34.90;23.00;;;13.00;99.90;;;;;;5033715;28;20140;-65
2021/03/03 10:59:03;;;;;;;38.08;22.23;;;13.20;99.90;;;;;;5026876;28;20025;-64
2021/03/03 11:01:56;;;;;;;42.08;23.83;;;13.20;99.90;;;;;;5001900;28;20030;-65
2021/03/03 11:04:22;;;;;;;38.80;23.77;;;;;;;;;;5013067;28;20680;-65
2021/03/03 11:06:48;;;;;;;36.75;24.73;;;13.40;99.90;;;;;;5028993;28;20112;-65
2021/03/03 11:09:15;;;;;;;36.30;23.77;;;13.90;99.90;;;;;;5023409;28;20466;-65
2021/03/03 11:11:47;;;;;;;38.60;24.97;;;14.10;99.90;;;;;;5033452;28;20045;-59
2021/03/03 11:14:13;;;;;;;34.08;23.50;;;14.30;99.90;;;;;;5028531;28;20030;-65
2021/03/03 11:16:38;;;;;;;33.70;22.27;;;14.40;99.90;;;;;;5013288;28;20026;-65
2021/03/03 11:19:04;;;;;;;35.45;24.13;;;14.60;99.90;;;;;;5011572;28;20026;-65
2021/03/03 11:21:30;;;;;;;35.63;23.38;;;14.80;99.90;;;;;;5032661;28;20072;-65
2021/03/03 11:23:55;;;;;;;37.03;25.05;;;15.00;99.90;;;;;;5015175;28;20028;-64
2021/03/03 11:26:21;;;;;;;37.08;25.25;;;15.40;99.90;;;;;;5029613;28;20523;-61
2021/03/03 11:28:46;;;;;;;42.55;26.60;;;15.70;99.90;;;;;;5007597;28;20128;-64
2021/03/03 11:31:12;;;;;;;37.80;26.90;;;16.10;99.90;;;;;;5017505;28;20511;-63
2021/03/03 11:33:37;;;;;;;42.00;30.40;;;16.40;99.90;;;;;;5014715;28;20029;-66
2021/03/03 11:36:03;;;;;;;44.53;28.65;;;16.80;99.90;;;;;;5020661;28;20400;-60
2021/03/03 11:38:29;;;;;;;42.15;30.27;;;16.90;99.90;;;;;;5028170;28;20075;-66
2021/03/03 11:40:55;;;;;;;45.05;29.00;;;16.90;99.90;;;;;;5031472;28;20096;-66
2021/03/03 11:43:20;;;;;;;41.70;28.35;;;16.80;99.90;;;;;;4997727;28;20064;-65
2021/03/03 11:45:46;;;;;;;41.88;28.48;;;16.90;99.90;;;;;;5032532;28;20389;-66
2021/03/03 11:48:13;;;;;;;42.05;31.38;;;17.20;99.90;;;;;;5032068;28;20068;-66
2021/03/03 11:50:38;;;;;;;47.80;32.53;;;17.00;99.70;;;;;;5031616;28;20163;-62
2021/03/03 11:53:04;;;;;;;41.63;29.83;;;16.90;99.50;;;;;;5010910;28;20970;-63
2021/03/03 11:55:29;;;;;;;46.45;29.90;;;17.10;99.90;;;;;;5012411;28;20033;-66
2021/03/03 11:57:55;;;;;;;45.05;31.27;;;16.90;99.20;;;;;;5024297;28;20029;-65
2021/03/03 12:00:21;;;;;;;44.47;30.98;;;;;;;;;;5014249;28;20087;-59
2021/03/03 12:02:47;;;;;;;51.05;34.40;;;16.50;99.50;;;;;;5032398;28;20021;-65
2021/03/03 12:05:13;;;;;;;49.50;32.17;;;15.90;99.90;;;;;;5013671;28;20030;-64
2021/03/03 12:07:38;;;;;;;45.75;29.95;;;15.70;99.90;;;;;;5028203;28;20025;-63
2021/03/03 12:10:05;;;;;;;45.90;29.95;;;15.70;99.90;;;;;;5011588;28;20049;-65
2021/03/03 12:12:31;;;;;;;41.80;29.67;;;16.20;99.90;;;;;;5030803;28;20044;-65
2021/03/03 12:14:57;;;;;;;44.08;31.70;;;16.70;99.90;;;;;;5013738;28;20620;-63
2021/03/03 12:17:23;;;;;;;47.10;31.75;;;17.00;99.80;;;;;;5031845;28;20033;-64
2021/03/03 12:19:49;;;;;;;45.10;31.08;;;;;;;;;;5030642;28;20021;-62
2021/03/03 12:22:15;;;;;;;46.13;33.03;;;;;;;;;;5031835;28;20445;-66
2021/03/03 12:24:41;;;;;;;47.80;35.60;;;;;;;;;;5031722;28;20025;-64
2021/03/03 12:27:07;;;;;;;47.00;32.83;;;16.80;99.90;;;;;;5032011;28;20034;-65
2021/03/03 12:29:33;;;;;;;48.00;35.80;;;17.90;98.00;;;;;;5012390;28;20079;-64
2021/03/03 12:31:58;;;;;;;57.70;37.25;;;17.80;98.40;;;;;;4994478;28;20116;-65
2021/03/03 12:34:25;;;;;;;52.80;38.88;;;17.90;98.10;;;;;;5011575;28;20022;-65
2021/03/03 12:36:51;;;;;;;53.45;36.65;;;17.60;98.60;;;;;;4994502;28;20026;-66
2021/03/03 12:39:17;;;;;;;55.80;39.80;;;;;;;;;;4993667;28;20072;-65
2021/03/03 12:41:43;;;;;;;51.60;39.88;;;17.30;98.60;;;;;;5012073;28;20081;-63
2021/03/03 12:44:08;;;;;;;55.10;38.38;;;17.40;98.30;;;;;;4994494;28;20030;-66
2021/03/03 12:46:34;;;;;;;48.42;39.03;;;17.40;98.40;;;;;;4995037;28;20026;-62